Jump to content


SOUTHWEST AIRLINES FLIGHT WN6342 FLOWN ON 08-18-2017 BY CAPTAIN TYLER HANUS

Pilot StatsCaptain Tyler Hanus (LDP525) • 254.3 total hours • 59 total flights [View Logbook]
FLIGHT DETAILS
StatusReceived and approved on 2017-08-18 at 14:08:19
Origin AirportPhoenix Sky Harbor Intl (KPHX) • Phoenix, Arizona, United States (1,135 feet MSL)
Filed Flight PlanFLIGHT PLANNER OFFLINE
Destination AirportSan Francisco Intl (KSFO) • San Francisco, California, United States (13 feet MSL)
Alternate AirportNone Filed
AirlineSouthwest Airlines
AircraftBoeing 737-800 | Winglets (73H / B737-800)
FS Aircraft UsedBoeing 737-8H4NGX Southwest Airlines (Warrior One) Winglets
Cruising AltitudeFL380
Distance Flown565 nautical miles
Passengers Onboard115 passengers (70.99% full)
DEPARTURE DETAILS
Time Out09:43:38
Taxi Data142,578 lbs total with 17,652 lbs of fuel onboard
Takeoff Data09:56:39 (13 minutes after leaving gate/ramp) • 141,878 lbs total • 6° pitch at 147 knots
Departure METARKPHX 181551Z 09005KT 10SM FEW120 FEW220 32/04 A2996 RMK AO2 SLP123 T03170039
ARRIVAL DETAILS
Landing Data11:32:31 • 132,248 lbs total • 5° pitch doing 123 knots at a rate of -277.59 feet/minute with 6,939 lbs of fuel onboard
Time In11:40:31 (8 minutes after landing)
Ramp Weight131,865 lbs total
Total Fuel Used10,713 lbs
Total Block Time01:50:25 (1.8 hours) while 21 minutes were spent on the ground
Arrival METARKSFO 181756Z 05005KT 10SM FEW010 20/14 A3000 RMK AO2 SLP158 T02000139 10200 20161 58004
MISCELLANEOUS DETAILS
LiveDISPATCH Version4.8.3.1
FS Version
FSUIPC Version4.96
OS VersionWindows 7 32-bit
Screen Resolution1360 x 768
Pilot's CommentsNo Comments Reported
FLIGHT MAP